sensor_id;sensor_type;location;lat;lon;timestamp;P1;durP1;ratioP1;P2;durP2;ratioP2
28724;SDS011;43472;48.980;9.646;2024-01-25T00:04:00;27.67;;;3.60;;
28724;SDS011;43472;48.980;9.646;2024-01-25T00:09:05;25.67;;;3.08;;
28724;SDS011;43472;48.980;9.646;2024-01-25T00:14:08;25.90;;;3.75;;
28724;SDS011;43472;48.980;9.646;2024-01-25T00:19:11;18.17;;;3.17;;
28724;SDS011;43472;48.980;9.646;2024-01-25T00:24:13;28.98;;;4.32;;
28724;SDS011;43472;48.980;9.646;2024-01-25T00:29:16;17.90;;;3.08;;
28724;SDS011;43472;48.980;9.646;2024-01-25T00:34:20;23.65;;;2.95;;
28724;SDS011;43472;48.980;9.646;2024-01-25T00:39:23;13.75;;;3.33;;
28724;SDS011;43472;48.980;9.646;2024-01-25T00:44:27;25.85;;;4.13;;
28724;SDS011;43472;48.980;9.646;2024-01-25T00:49:30;19.92;;;3.10;;
28724;SDS011;43472;48.980;9.646;2024-01-25T00:54:33;22.17;;;3.78;;
28724;SDS011;43472;48.980;9.646;2024-01-25T00:59:35;15.77;;;2.88;;
28724;SDS011;43472;48.980;9.646;2024-01-25T01:04:37;30.38;;;3.38;;
28724;SDS011;43472;48.980;9.646;2024-01-25T01:09:48;17.35;;;3.17;;
28724;SDS011;43472;48.980;9.646;2024-01-25T01:14:50;24.27;;;3.40;;
28724;SDS011;43472;48.980;9.646;2024-01-25T01:19:52;20.45;;;3.55;;
28724;SDS011;43472;48.980;9.646;2024-01-25T01:24:55;24.33;;;3.47;;
28724;SDS011;43472;48.980;9.646;2024-01-25T01:29:56;44.00;;;5.75;;
28724;SDS011;43472;48.980;9.646;2024-01-25T01:35:00;20.35;;;4.03;;
28724;SDS011;43472;48.980;9.646;2024-01-25T01:40:03;31.67;;;5.53;;
28724;SDS011;43472;48.980;9.646;2024-01-25T01:45:05;24.98;;;3.20;;
28724;SDS011;43472;48.980;9.646;2024-01-25T01:50:10;31.85;;;4.93;;
28724;SDS011;43472;48.980;9.646;2024-01-25T01:55:12;25.02;;;3.70;;
28724;SDS011;43472;48.980;9.646;2024-01-25T02:00:15;27.63;;;3.78;;
28724;SDS011;43472;48.980;9.646;2024-01-25T02:05:18;22.02;;;3.72;;
28724;SDS011;43472;48.980;9.646;2024-01-25T02:10:20;21.38;;;3.10;;
28724;SDS011;43472;48.980;9.646;2024-01-25T02:15:22;21.55;;;3.30;;
28724;SDS011;43472;48.980;9.646;2024-01-25T02:20:24;23.15;;;3.58;;
28724;SDS011;43472;48.980;9.646;2024-01-25T02:25:26;24.15;;;4.22;;
28724;SDS011;43472;48.980;9.646;2024-01-25T02:30:29;26.58;;;4.70;;
28724;SDS011;43472;48.980;9.646;2024-01-25T02:35:33;22.42;;;3.03;;
28724;SDS011;43472;48.980;9.646;2024-01-25T02:40:36;19.90;;;3.88;;
28724;SDS011;43472;48.980;9.646;2024-01-25T02:45:39;20.48;;;3.20;;
28724;SDS011;43472;48.980;9.646;2024-01-25T02:50:41;21.08;;;4.32;;
28724;SDS011;43472;48.980;9.646;2024-01-25T02:55:44;18.30;;;3.60;;
28724;SDS011;43472;48.980;9.646;2024-01-25T03:00:46;21.33;;;3.33;;
28724;SDS011;43472;48.980;9.646;2024-01-25T03:05:48;23.88;;;4.35;;
28724;SDS011;43472;48.980;9.646;2024-01-25T03:10:53;22.92;;;3.55;;
28724;SDS011;43472;48.980;9.646;2024-01-25T03:15:55;13.40;;;2.75;;
28724;SDS011;43472;48.980;9.646;2024-01-25T03:20:58;19.92;;;3.47;;
28724;SDS011;43472;48.980;9.646;2024-01-25T03:26:01;23.23;;;3.15;;
28724;SDS011;43472;48.980;9.646;2024-01-25T03:31:05;25.67;;;4.25;;
28724;SDS011;43472;48.980;9.646;2024-01-25T03:36:08;18.13;;;3.00;;
28724;SDS011;43472;48.980;9.646;2024-01-25T03:41:11;24.55;;;3.45;;
28724;SDS011;43472;48.980;9.646;2024-01-25T03:46:13;17.02;;;3.60;;
28724;SDS011;43472;48.980;9.646;2024-01-25T03:51:15;25.30;;;3.65;;
28724;SDS011;43472;48.980;9.646;2024-01-25T03:56:17;21.00;;;3.03;;
28724;SDS011;43472;48.980;9.646;2024-01-25T04:01:20;19.55;;;3.53;;
28724;SDS011;43472;48.980;9.646;2024-01-25T04:06:22;22.77;;;3.17;;
28724;SDS011;43472;48.980;9.646;2024-01-25T04:11:24;24.45;;;4.00;;
28724;SDS011;43472;48.980;9.646;2024-01-25T04:16:29;19.65;;;3.35;;
28724;SDS011;43472;48.980;9.646;2024-01-25T04:21:31;32.67;;;5.47;;
28724;SDS011;43472;48.980;9.646;2024-01-25T04:26:40;24.08;;;4.05;;
28724;SDS011;43472;48.980;9.646;2024-01-25T04:31:43;11.40;;;2.92;;
28724;SDS011;43472;48.980;9.646;2024-01-25T04:36:50;24.23;;;4.10;;
28724;SDS011;43472;48.980;9.646;2024-01-25T04:41:52;20.45;;;4.05;;
28724;SDS011;43472;48.980;9.646;2024-01-25T04:46:54;20.35;;;4.25;;
28724;SDS011;43472;48.980;9.646;2024-01-25T04:51:56;15.73;;;3.67;;
28724;SDS011;43472;48.980;9.646;2024-01-25T04:56:58;21.73;;;4.25;;
28724;SDS011;43472;48.980;9.646;2024-01-25T05:02:00;21.83;;;3.40;;
28724;SDS011;43472;48.980;9.646;2024-01-25T05:07:02;25.95;;;3.83;;
28724;SDS011;43472;48.980;9.646;2024-01-25T05:12:05;21.95;;;4.10;;
28724;SDS011;43472;48.980;9.646;2024-01-25T05:17:08;18.17;;;3.65;;
28724;SDS011;43472;48.980;9.646;2024-01-25T05:22:10;16.95;;;3.50;;
28724;SDS011;43472;48.980;9.646;2024-01-25T05:27:12;17.92;;;3.60;;
28724;SDS011;43472;48.980;9.646;2024-01-25T05:32:15;27.98;;;4.10;;
28724;SDS011;43472;48.980;9.646;2024-01-25T05:37:19;20.95;;;3.95;;
28724;SDS011;43472;48.980;9.646;2024-01-25T05:42:21;22.35;;;3.55;;
28724;SDS011;43472;48.980;9.646;2024-01-25T05:47:24;19.00;;;3.58;;
28724;SDS011;43472;48.980;9.646;2024-01-25T05:52:27;18.88;;;3.72;;
28724;SDS011;43472;48.980;9.646;2024-01-25T05:57:29;16.60;;;2.63;;
28724;SDS011;43472;48.980;9.646;2024-01-25T06:02:31;19.17;;;4.10;;
28724;SDS011;43472;48.980;9.646;2024-01-25T06:07:34;20.13;;;3.40;;
28724;SDS011;43472;48.980;9.646;2024-01-25T06:12:37;19.00;;;3.47;;
28724;SDS011;43472;48.980;9.646;2024-01-25T06:17:43;27.92;;;6.10;;
28724;SDS011;43472;48.980;9.646;2024-01-25T06:22:45;25.40;;;3.55;;
28724;SDS011;43472;48.980;9.646;2024-01-25T06:27:48;20.58;;;3.50;;
28724;SDS011;43472;48.980;9.646;2024-01-25T06:32:53;20.08;;;3.38;;
28724;SDS011;43472;48.980;9.646;2024-01-25T06:37:55;24.48;;;3.25;;
28724;SDS011;43472;48.980;9.646;2024-01-25T06:42:57;16.58;;;3.60;;
28724;SDS011;43472;48.980;9.646;2024-01-25T06:47:59;17.50;;;2.78;;
28724;SDS011;43472;48.980;9.646;2024-01-25T06:53:03;28.50;;;4.32;;
28724;SDS011;43472;48.980;9.646;2024-01-25T06:58:07;24.58;;;3.97;;
28724;SDS011;43472;48.980;9.646;2024-01-25T07:03:10;21.58;;;3.83;;
28724;SDS011;43472;48.980;9.646;2024-01-25T07:08:12;30.85;;;4.70;;
28724;SDS011;43472;48.980;9.646;2024-01-25T07:13:14;21.48;;;3.03;;
28724;SDS011;43472;48.980;9.646;2024-01-25T07:18:17;20.65;;;4.13;;
28724;SDS011;43472;48.980;9.646;2024-01-25T07:23:21;21.42;;;4.05;;
28724;SDS011;43472;48.980;9.646;2024-01-25T07:28:26;22.92;;;3.00;;
28724;SDS011;43472;48.980;9.646;2024-01-25T07:33:28;17.15;;;2.45;;
28724;SDS011;43472;48.980;9.646;2024-01-25T07:38:30;13.13;;;2.45;;
28724;SDS011;43472;48.980;9.646;2024-01-25T07:43:32;17.50;;;3.08;;
28724;SDS011;43472;48.980;9.646;2024-01-25T07:48:35;24.33;;;7.28;;
28724;SDS011;43472;48.980;9.646;2024-01-25T07:53:37;20.85;;;3.45;;
28724;SDS011;43472;48.980;9.646;2024-01-25T07:58:41;32.30;;;5.57;;
28724;SDS011;43472;48.980;9.646;2024-01-25T08:03:44;15.00;;;3.33;;
28724;SDS011;43472;48.980;9.646;2024-01-25T08:08:46;18.15;;;4.75;;
28724;SDS011;43472;48.980;9.646;2024-01-25T08:13:48;24.60;;;4.00;;
28724;SDS011;43472;48.980;9.646;2024-01-25T08:18:51;22.48;;;5.18;;
28724;SDS011;43472;48.980;9.646;2024-01-25T08:23:53;26.92;;;4.95;;
28724;SDS011;43472;48.980;9.646;2024-01-25T08:28:55;19.75;;;4.97;;
28724;SDS011;43472;48.980;9.646;2024-01-25T08:33:59;21.15;;;3.95;;
28724;SDS011;43472;48.980;9.646;2024-01-25T08:39:02;27.20;;;4.45;;
28724;SDS011;43472;48.980;9.646;2024-01-25T08:44:06;17.65;;;2.85;;
28724;SDS011;43472;48.980;9.646;2024-01-25T08:49:12;25.75;;;3.80;;
28724;SDS011;43472;48.980;9.646;2024-01-25T08:54:15;22.13;;;3.65;;
28724;SDS011;43472;48.980;9.646;2024-01-25T08:59:17;14.50;;;3.05;;
28724;SDS011;43472;48.980;9.646;2024-01-25T09:04:19;25.23;;;3.30;;
28724;SDS011;43472;48.980;9.646;2024-01-25T09:09:25;20.23;;;4.00;;
28724;SDS011;43472;48.980;9.646;2024-01-25T09:14:27;24.17;;;3.53;;
28724;SDS011;43472;48.980;9.646;2024-01-25T09:19:29;18.65;;;3.95;;
28724;SDS011;43472;48.980;9.646;2024-01-25T09:24:32;20.65;;;4.20;;
28724;SDS011;43472;48.980;9.646;2024-01-25T09:29:38;25.80;;;3.75;;
28724;SDS011;43472;48.980;9.646;2024-01-25T09:34:41;24.08;;;3.88;;
28724;SDS011;43472;48.980;9.646;2024-01-25T09:39:43;24.02;;;5.07;;
28724;SDS011;43472;48.980;9.646;2024-01-25T09:44:45;16.38;;;3.78;;
28724;SDS011;43472;48.980;9.646;2024-01-25T09:49:48;28.65;;;4.32;;
28724;SDS011;43472;48.980;9.646;2024-01-25T09:54:52;22.65;;;3.80;;
28724;SDS011;43472;48.980;9.646;2024-01-25T09:59:55;32.35;;;4.70;;
28724;SDS011;43472;48.980;9.646;2024-01-25T10:04:57;18.95;;;3.28;;
28724;SDS011;43472;48.980;9.646;2024-01-25T10:10:00;28.92;;;5.70;;
28724;SDS011;43472;48.980;9.646;2024-01-25T10:15:03;21.02;;;3.95;;
28724;SDS011;43472;48.980;9.646;2024-01-25T10:20:05;22.63;;;3.92;;
28724;SDS011;43472;48.980;9.646;2024-01-25T10:25:13;18.38;;;3.10;;
28724;SDS011;43472;48.980;9.646;2024-01-25T10:30:16;23.98;;;3.78;;
28724;SDS011;43472;48.980;9.646;2024-01-25T10:35:22;22.33;;;5.03;;
28724;SDS011;43472;48.980;9.646;2024-01-25T10:40:26;29.75;;;4.50;;
28724;SDS011;43472;48.980;9.646;2024-01-25T10:45:29;27.73;;;3.75;;
28724;SDS011;43472;48.980;9.646;2024-01-25T10:50:32;23.90;;;3.88;;
28724;SDS011;43472;48.980;9.646;2024-01-25T10:55:36;32.97;;;4.50;;
28724;SDS011;43472;48.980;9.646;2024-01-25T11:00:38;25.55;;;4.38;;
28724;SDS011;43472;48.980;9.646;2024-01-25T11:05:41;21.95;;;4.97;;
28724;SDS011;43472;48.980;9.646;2024-01-25T11:10:48;19.35;;;5.18;;
28724;SDS011;43472;48.980;9.646;2024-01-25T11:15:53;20.25;;;4.30;;
28724;SDS011;43472;48.980;9.646;2024-01-25T11:20:59;31.23;;;6.07;;
28724;SDS011;43472;48.980;9.646;2024-01-25T11:26:02;23.88;;;5.35;;
28724;SDS011;43472;48.980;9.646;2024-01-25T11:31:04;17.40;;;4.30;;
28724;SDS011;43472;48.980;9.646;2024-01-25T11:36:06;18.60;;;5.13;;
28724;SDS011;43472;48.980;9.646;2024-01-25T11:41:08;29.08;;;8.07;;
28724;SDS011;43472;48.980;9.646;2024-01-25T11:46:10;18.40;;;5.25;;
28724;SDS011;43472;48.980;9.646;2024-01-25T11:51:12;18.83;;;4.82;;
28724;SDS011;43472;48.980;9.646;2024-01-25T11:56:14;15.18;;;4.53;;
28724;SDS011;43472;48.980;9.646;2024-01-25T12:01:22;21.13;;;4.22;;
28724;SDS011;43472;48.980;9.646;2024-01-25T12:06:26;23.33;;;4.88;;
28724;SDS011;43472;48.980;9.646;2024-01-25T12:11:30;16.60;;;3.85;;
28724;SDS011;43472;48.980;9.646;2024-01-25T12:16:32;17.58;;;4.38;;
28724;SDS011;43472;48.980;9.646;2024-01-25T12:21:38;20.38;;;4.15;;
28724;SDS011;43472;48.980;9.646;2024-01-25T12:26:45;16.13;;;3.92;;
28724;SDS011;43472;48.980;9.646;2024-01-25T12:31:48;14.63;;;4.35;;
28724;SDS011;43472;48.980;9.646;2024-01-25T12:36:51;15.00;;;3.75;;
28724;SDS011;43472;48.980;9.646;2024-01-25T12:41:54;18.40;;;3.08;;
28724;SDS011;43472;48.980;9.646;2024-01-25T12:46:56;23.80;;;3.83;;
28724;SDS011;43472;48.980;9.646;2024-01-25T12:51:59;13.75;;;3.83;;
28724;SDS011;43472;48.980;9.646;2024-01-25T12:57:01;14.73;;;3.10;;
28724;SDS011;43472;48.980;9.646;2024-01-25T13:02:04;15.40;;;2.83;;
28724;SDS011;43472;48.980;9.646;2024-01-25T13:07:08;24.40;;;3.47;;
28724;SDS011;43472;48.980;9.646;2024-01-25T13:12:10;12.07;;;2.92;;
28724;SDS011;43472;48.980;9.646;2024-01-25T13:17:14;15.52;;;3.08;;
28724;SDS011;43472;48.980;9.646;2024-01-25T13:22:16;18.35;;;2.88;;
28724;SDS011;43472;48.980;9.646;2024-01-25T13:27:22;17.10;;;3.42;;
28724;SDS011;43472;48.980;9.646;2024-01-25T13:32:26;17.50;;;4.35;;
28724;SDS011;43472;48.980;9.646;2024-01-25T13:37:28;20.95;;;6.00;;
28724;SDS011;43472;48.980;9.646;2024-01-25T13:42:29;20.40;;;5.43;;
28724;SDS011;43472;48.980;9.646;2024-01-25T13:47:32;16.70;;;3.67;;
28724;SDS011;43472;48.980;9.646;2024-01-25T13:52:34;16.58;;;3.75;;
28724;SDS011;43472;48.980;9.646;2024-01-25T13:57:38;14.20;;;3.65;;
28724;SDS011;43472;48.980;9.646;2024-01-25T14:02:40;17.80;;;4.28;;
28724;SDS011;43472;48.980;9.646;2024-01-25T14:07:46;15.13;;;3.25;;
28724;SDS011;43472;48.980;9.646;2024-01-25T14:12:49;11.32;;;2.65;;
28724;SDS011;43472;48.980;9.646;2024-01-25T14:17:53;14.80;;;2.83;;
28724;SDS011;43472;48.980;9.646;2024-01-25T14:22:58;11.65;;;2.75;;
28724;SDS011;43472;48.980;9.646;2024-01-25T14:28:03;11.63;;;2.13;;
28724;SDS011;43472;48.980;9.646;2024-01-25T14:33:05;7.55;;;2.10;;
28724;SDS011;43472;48.980;9.646;2024-01-25T14:38:07;7.63;;;2.25;;
28724;SDS011;43472;48.980;9.646;2024-01-25T14:43:10;10.05;;;2.22;;
28724;SDS011;43472;48.980;9.646;2024-01-25T14:48:12;11.27;;;2.17;;
28724;SDS011;43472;48.980;9.646;2024-01-25T14:53:14;10.07;;;2.38;;
28724;SDS011;43472;48.980;9.646;2024-01-25T14:58:19;10.02;;;2.15;;
28724;SDS011;43472;48.980;9.646;2024-01-25T15:03:25;9.25;;;2.35;;
28724;SDS011;43472;48.980;9.646;2024-01-25T15:08:28;12.05;;;2.53;;
28724;SDS011;43472;48.980;9.646;2024-01-25T15:13:33;14.57;;;3.40;;
28724;SDS011;43472;48.980;9.646;2024-01-25T15:18:35;10.27;;;2.30;;
28724;SDS011;43472;48.980;9.646;2024-01-25T15:23:37;10.73;;;2.53;;
28724;SDS011;43472;48.980;9.646;2024-01-25T15:28:39;9.90;;;2.50;;
28724;SDS011;43472;48.980;9.646;2024-01-25T15:33:42;12.75;;;3.15;;
28724;SDS011;43472;48.980;9.646;2024-01-25T15:38:47;14.60;;;3.60;;
28724;SDS011;43472;48.980;9.646;2024-01-25T15:43:50;12.98;;;3.80;;
28724;SDS011;43472;48.980;9.646;2024-01-25T15:48:52;39.22;;;15.55;;
28724;SDS011;43472;48.980;9.646;2024-01-25T15:53:56;34.22;;;14.30;;
28724;SDS011;43472;48.980;9.646;2024-01-25T15:58:58;17.00;;;5.20;;
28724;SDS011;43472;48.980;9.646;2024-01-25T16:04:00;14.02;;;3.80;;
28724;SDS011;43472;48.980;9.646;2024-01-25T16:09:02;18.48;;;5.47;;
28724;SDS011;43472;48.980;9.646;2024-01-25T16:14:05;15.48;;;3.50;;
28724;SDS011;43472;48.980;9.646;2024-01-25T16:19:06;10.25;;;1.98;;
28724;SDS011;43472;48.980;9.646;2024-01-25T16:24:08;15.55;;;3.78;;
28724;SDS011;43472;48.980;9.646;2024-01-25T16:29:11;12.20;;;3.63;;
28724;SDS011;43472;48.980;9.646;2024-01-25T16:34:13;23.77;;;9.00;;
28724;SDS011;43472;48.980;9.646;2024-01-25T16:39:16;23.38;;;8.73;;
28724;SDS011;43472;48.980;9.646;2024-01-25T16:44:18;25.50;;;9.05;;
28724;SDS011;43472;48.980;9.646;2024-01-25T16:49:20;53.75;;;18.67;;
28724;SDS011;43472;48.980;9.646;2024-01-25T16:54:23;38.22;;;15.50;;
28724;SDS011;43472;48.980;9.646;2024-01-25T16:59:25;26.83;;;11.52;;
28724;SDS011;43472;48.980;9.646;2024-01-25T17:04:29;26.30;;;8.98;;
28724;SDS011;43472;48.980;9.646;2024-01-25T17:09:31;34.83;;;10.80;;
28724;SDS011;43472;48.980;9.646;2024-01-25T17:14:34;28.60;;;9.93;;
28724;SDS011;43472;48.980;9.646;2024-01-25T17:19:37;16.60;;;4.65;;
28724;SDS011;43472;48.980;9.646;2024-01-25T17:24:40;12.13;;;3.97;;
28724;SDS011;43472;48.980;9.646;2024-01-25T17:29:45;49.85;;;21.80;;
28724;SDS011;43472;48.980;9.646;2024-01-25T17:34:46;26.63;;;10.57;;
28724;SDS011;43472;48.980;9.646;2024-01-25T17:39:49;22.45;;;5.78;;
28724;SDS011;43472;48.980;9.646;2024-01-25T17:44:52;26.92;;;7.15;;
28724;SDS011;43472;48.980;9.646;2024-01-25T17:49:56;8.52;;;3.05;;
28724;SDS011;43472;48.980;9.646;2024-01-25T17:54:58;19.23;;;6.32;;
28724;SDS011;43472;48.980;9.646;2024-01-25T18:00:01;21.55;;;8.13;;
28724;SDS011;43472;48.980;9.646;2024-01-25T18:05:04;26.25;;;10.35;;
28724;SDS011;43472;48.980;9.646;2024-01-25T18:10:08;23.42;;;9.23;;
28724;SDS011;43472;48.980;9.646;2024-01-25T18:15:13;20.65;;;7.82;;
28724;SDS011;43472;48.980;9.646;2024-01-25T18:20:16;80.57;;;30.17;;
28724;SDS011;43472;48.980;9.646;2024-01-25T18:25:20;36.38;;;14.70;;
28724;SDS011;43472;48.980;9.646;2024-01-25T18:30:23;26.48;;;10.32;;
28724;SDS011;43472;48.980;9.646;2024-01-25T18:35:27;21.80;;;6.90;;
28724;SDS011;43472;48.980;9.646;2024-01-25T18:40:28;17.23;;;6.25;;
28724;SDS011;43472;48.980;9.646;2024-01-25T18:45:30;72.15;;;29.00;;
28724;SDS011;43472;48.980;9.646;2024-01-25T18:50:32;39.55;;;13.95;;
28724;SDS011;43472;48.980;9.646;2024-01-25T18:55:37;39.30;;;14.30;;
28724;SDS011;43472;48.980;9.646;2024-01-25T19:00:39;28.40;;;10.25;;
28724;SDS011;43472;48.980;9.646;2024-01-25T19:05:42;25.67;;;9.88;;
28724;SDS011;43472;48.980;9.646;2024-01-25T19:10:47;24.77;;;10.43;;
28724;SDS011;43472;48.980;9.646;2024-01-25T19:15:51;19.52;;;9.32;;
28724;SDS011;43472;48.980;9.646;2024-01-25T19:20:53;30.27;;;12.63;;
28724;SDS011;43472;48.980;9.646;2024-01-25T19:25:55;33.85;;;15.07;;
28724;SDS011;43472;48.980;9.646;2024-01-25T19:30:59;37.78;;;15.32;;
28724;SDS011;43472;48.980;9.646;2024-01-25T19:36:04;32.05;;;14.45;;
28724;SDS011;43472;48.980;9.646;2024-01-25T19:41:07;25.50;;;13.45;;
28724;SDS011;43472;48.980;9.646;2024-01-25T19:46:10;33.83;;;15.23;;
28724;SDS011;43472;48.980;9.646;2024-01-25T19:51:12;26.35;;;12.50;;
28724;SDS011;43472;48.980;9.646;2024-01-25T19:56:15;30.25;;;12.00;;
28724;SDS011;43472;48.980;9.646;2024-01-25T20:01:21;32.22;;;11.77;;
28724;SDS011;43472;48.980;9.646;2024-01-25T20:06:23;35.78;;;13.18;;
28724;SDS011;43472;48.980;9.646;2024-01-25T20:11:32;35.90;;;15.57;;
28724;SDS011;43472;48.980;9.646;2024-01-25T20:16:33;85.38;;;32.28;;
28724;SDS011;43472;48.980;9.646;2024-01-25T20:21:35;34.08;;;15.95;;
28724;SDS011;43472;48.980;9.646;2024-01-25T20:26:37;28.02;;;12.85;;
28724;SDS011;43472;48.980;9.646;2024-01-25T20:37:24;28.00;;;10.77;;
28724;SDS011;43472;48.980;9.646;2024-01-25T20:42:27;18.33;;;8.13;;
28724;SDS011;43472;48.980;9.646;2024-01-25T20:47:29;12.63;;;6.75;;
28724;SDS011;43472;48.980;9.646;2024-01-25T20:52:31;22.67;;;6.60;;
28724;SDS011;43472;48.980;9.646;2024-01-25T20:57:33;48.35;;;20.25;;
28724;SDS011;43472;48.980;9.646;2024-01-25T21:02:35;49.45;;;22.85;;
28724;SDS011;43472;48.980;9.646;2024-01-25T21:07:37;39.42;;;14.60;;
28724;SDS011;43472;48.980;9.646;2024-01-25T21:12:40;42.45;;;14.77;;
28724;SDS011;43472;48.980;9.646;2024-01-25T21:17:42;31.50;;;11.40;;
28724;SDS011;43472;48.980;9.646;2024-01-25T21:22:48;29.63;;;11.27;;
28724;SDS011;43472;48.980;9.646;2024-01-25T21:27:51;28.00;;;11.38;;
28724;SDS011;43472;48.980;9.646;2024-01-25T21:32:53;25.98;;;11.00;;
28724;SDS011;43472;48.980;9.646;2024-01-25T21:37:55;35.53;;;14.63;;
28724;SDS011;43472;48.980;9.646;2024-01-25T21:43:00;22.08;;;11.98;;
28724;SDS011;43472;48.980;9.646;2024-01-25T21:48:04;24.92;;;12.25;;
28724;SDS011;43472;48.980;9.646;2024-01-25T21:53:11;37.20;;;13.63;;
28724;SDS011;43472;48.980;9.646;2024-01-25T21:58:13;26.25;;;11.90;;
28724;SDS011;43472;48.980;9.646;2024-01-25T22:03:15;74.45;;;37.25;;
28724;SDS011;43472;48.980;9.646;2024-01-25T22:08:17;48.90;;;24.00;;
28724;SDS011;43472;48.980;9.646;2024-01-25T22:13:21;27.63;;;13.70;;
28724;SDS011;43472;48.980;9.646;2024-01-25T22:18:23;38.90;;;16.45;;
28724;SDS011;43472;48.980;9.646;2024-01-25T22:23:25;37.08;;;15.38;;
28724;SDS011;43472;48.980;9.646;2024-01-25T22:28:28;33.58;;;16.85;;
28724;SDS011;43472;48.980;9.646;2024-01-25T22:33:32;27.15;;;14.05;;
28724;SDS011;43472;48.980;9.646;2024-01-25T22:38:38;26.63;;;10.63;;
28724;SDS011;43472;48.980;9.646;2024-01-25T22:43:41;29.05;;;12.70;;
28724;SDS011;43472;48.980;9.646;2024-01-25T22:48:43;32.60;;;12.30;;
28724;SDS011;43472;48.980;9.646;2024-01-25T22:53:45;23.33;;;11.85;;
28724;SDS011;43472;48.980;9.646;2024-01-25T22:58:46;30.15;;;13.00;;
28724;SDS011;43472;48.980;9.646;2024-01-25T23:03:49;28.75;;;15.43;;
28724;SDS011;43472;48.980;9.646;2024-01-25T23:08:52;31.48;;;13.27;;
28724;SDS011;43472;48.980;9.646;2024-01-25T23:13:54;25.00;;;12.13;;
28724;SDS011;43472;48.980;9.646;2024-01-25T23:18:56;20.45;;;12.20;;
28724;SDS011;43472;48.980;9.646;2024-01-25T23:23:58;25.23;;;11.63;;
28724;SDS011;43472;48.980;9.646;2024-01-25T23:29:00;26.65;;;11.93;;
28724;SDS011;43472;48.980;9.646;2024-01-25T23:34:02;33.50;;;13.93;;
28724;SDS011;43472;48.980;9.646;2024-01-25T23:39:05;21.60;;;11.13;;
28724;SDS011;43472;48.980;9.646;2024-01-25T23:44:07;19.67;;;10.63;;
28724;SDS011;43472;48.980;9.646;2024-01-25T23:49:11;16.30;;;9.88;;
28724;SDS011;43472;48.980;9.646;2024-01-25T23:54:18;21.00;;;9.70;;
28724;SDS011;43472;48.980;9.646;2024-01-25T23:59:20;23.13;;;11.20;;
